sensor_id;sensor_type;location;lat;lon;timestamp;pressure;altitude;pressure_sealevel;temperature;humidity
30216;BME280;17028;47.642;8.070;2022-10-23T00:04:39;93800.41;;;12.92;80.71
30216;BME280;17028;47.642;8.070;2022-10-23T00:09:40;93803.81;;;12.96;80.70
30216;BME280;17028;47.642;8.070;2022-10-23T00:14:41;93803.16;;;13.01;80.76
30216;BME280;17028;47.642;8.070;2022-10-23T00:19:42;93803.78;;;13.05;80.66
30216;BME280;17028;47.642;8.070;2022-10-23T00:24:43;93796.47;;;13.08;80.74
30216;BME280;17028;47.642;8.070;2022-10-23T00:29:44;93803.91;;;13.11;80.71
30216;BME280;17028;47.642;8.070;2022-10-23T00:34:45;93790.22;;;13.13;80.58
30216;BME280;17028;47.642;8.070;2022-10-23T00:39:46;93791.59;;;13.17;80.24
30216;BME280;17028;47.642;8.070;2022-10-23T00:49:49;93794.22;;;13.21;80.02
30216;BME280;17028;47.642;8.070;2022-10-23T00:54:50;93790.78;;;13.26;79.83
30216;BME280;17028;47.642;8.070;2022-10-23T00:59:51;93796.97;;;13.30;79.50
30216;BME280;17028;47.642;8.070;2022-10-23T01:04:52;93789.19;;;13.34;79.14
30216;BME280;17028;47.642;8.070;2022-10-23T01:15:21;93773.44;;;13.46;78.80
30216;BME280;17028;47.642;8.070;2022-10-23T01:30:43;93753.72;;;13.65;77.87
30216;BME280;17028;47.642;8.070;2022-10-23T01:35:52;93765.34;;;13.73;77.37
30216;BME280;17028;47.642;8.070;2022-10-23T01:40:55;93760.16;;;13.80;77.24
30216;BME280;17028;47.642;8.070;2022-10-23T01:46:01;93752.94;;;13.89;76.66
30216;BME280;17028;47.642;8.070;2022-10-23T01:51:07;93761.53;;;13.85;76.33
30216;BME280;17028;47.642;8.070;2022-10-23T01:56:14;93753.19;;;13.76;75.95
30216;BME280;17028;47.642;8.070;2022-10-23T02:01:19;93744.50;;;13.74;75.85
30216;BME280;17028;47.642;8.070;2022-10-23T02:06:25;93745.44;;;13.70;75.78
30216;BME280;17028;47.642;8.070;2022-10-23T02:11:26;93745.31;;;13.65;75.51
30216;BME280;17028;47.642;8.070;2022-10-23T02:16:41;93735.72;;;13.57;75.25
30216;BME280;17028;47.642;8.070;2022-10-23T02:27:15;93714.78;;;13.43;75.05
30216;BME280;17028;47.642;8.070;2022-10-23T02:32:19;93716.25;;;13.38;75.11
30216;BME280;17028;47.642;8.070;2022-10-23T02:37:22;93722.44;;;13.42;75.13
30216;BME280;17028;47.642;8.070;2022-10-23T02:42:35;93721.59;;;13.51;75.00
30216;BME280;17028;47.642;8.070;2022-10-23T03:03:36;93692.53;;;13.48;73.93
30216;BME280;17028;47.642;8.070;2022-10-23T03:08:42;93685.84;;;13.46;73.93
30216;BME280;17028;47.642;8.070;2022-10-23T03:13:43;93679.47;;;13.45;73.75
30216;BME280;17028;47.642;8.070;2022-10-23T03:18:44;93671.84;;;13.46;73.52
30216;BME280;17028;47.642;8.070;2022-10-23T03:23:45;93665.19;;;13.43;73.18
30216;BME280;17028;47.642;8.070;2022-10-23T03:28:51;93667.38;;;13.39;73.17
30216;BME280;17028;47.642;8.070;2022-10-23T03:33:54;93654.19;;;13.30;73.04
30216;BME280;17028;47.642;8.070;2022-10-23T03:38:56;93659.06;;;13.20;72.92
30216;BME280;17028;47.642;8.070;2022-10-23T03:43:57;93649.84;;;13.05;73.03
30216;BME280;17028;47.642;8.070;2022-10-23T03:48:58;93643.41;;;12.90;73.20
30216;BME280;17028;47.642;8.070;2022-10-23T03:54:00;93643.13;;;12.78;73.76
30216;BME280;17028;47.642;8.070;2022-10-23T03:59:01;93650.03;;;12.68;73.98
30216;BME280;17028;47.642;8.070;2022-10-23T04:04:02;93655.19;;;12.60;74.17
30216;BME280;17028;47.642;8.070;2022-10-23T04:09:04;93655.97;;;12.61;73.94
30216;BME280;17028;47.642;8.070;2022-10-23T04:14:06;93648.19;;;12.65;74.00
30216;BME280;17028;47.642;8.070;2022-10-23T04:19:07;93671.94;;;12.69;73.71
30216;BME280;17028;47.642;8.070;2022-10-23T04:24:08;93652.06;;;12.67;73.59
30216;BME280;17028;47.642;8.070;2022-10-23T04:29:09;93653.91;;;12.70;73.40
30216;BME280;17028;47.642;8.070;2022-10-23T04:34:10;93648.63;;;12.73;73.41
30216;BME280;17028;47.642;8.070;2022-10-23T04:39:11;93654.97;;;12.73;73.19
30216;BME280;17028;47.642;8.070;2022-10-23T04:44:12;93640.81;;;12.77;73.00
30216;BME280;17028;47.642;8.070;2022-10-23T04:49:13;93648.75;;;12.78;72.75
30216;BME280;17028;47.642;8.070;2022-10-23T04:54:24;93653.13;;;12.70;72.68
30216;BME280;17028;47.642;8.070;2022-10-23T04:59:43;93661.09;;;12.62;72.83
30216;BME280;17028;47.642;8.070;2022-10-23T05:04:44;93660.16;;;12.56;72.72
30216;BME280;17028;47.642;8.070;2022-10-23T05:10:04;93668.91;;;12.49;72.85
30216;BME280;17028;47.642;8.070;2022-10-23T05:15:13;93661.91;;;12.44;73.16
30216;BME280;17028;47.642;8.070;2022-10-23T05:20:19;93657.16;;;12.35;73.32
30216;BME280;17028;47.642;8.070;2022-10-23T05:25:21;93651.88;;;12.28;73.39
30216;BME280;17028;47.642;8.070;2022-10-23T05:30:26;93665.09;;;12.28;73.68
30216;BME280;17028;47.642;8.070;2022-10-23T05:35:28;93652.03;;;12.34;73.54
30216;BME280;17028;47.642;8.070;2022-10-23T05:40:29;93663.03;;;12.38;73.48
30216;BME280;17028;47.642;8.070;2022-10-23T05:45:35;93661.03;;;12.38;73.51
30216;BME280;17028;47.642;8.070;2022-10-23T05:50:55;93661.31;;;12.40;73.35
30216;BME280;17028;47.642;8.070;2022-10-23T05:56:06;93658.84;;;12.42;73.32
30216;BME280;17028;47.642;8.070;2022-10-23T06:01:18;93656.31;;;12.44;73.12
30216;BME280;17028;47.642;8.070;2022-10-23T06:06:29;93664.13;;;12.31;73.25
30216;BME280;17028;47.642;8.070;2022-10-23T06:11:30;93649.41;;;12.21;73.50
30216;BME280;17028;47.642;8.070;2022-10-23T06:16:37;93654.44;;;12.08;73.79
30216;BME280;17028;47.642;8.070;2022-10-23T06:21:39;93656.91;;;11.96;74.52
30216;BME280;17028;47.642;8.070;2022-10-23T06:26:40;93645.44;;;11.94;74.46
30216;BME280;17028;47.642;8.070;2022-10-23T06:31:50;93664.84;;;11.98;74.54
30216;BME280;17028;47.642;8.070;2022-10-23T06:36:51;93658.63;;;12.03;74.54
30216;BME280;17028;47.642;8.070;2022-10-23T06:42:11;93676.63;;;12.11;74.44
30216;BME280;17028;47.642;8.070;2022-10-23T06:47:42;93671.19;;;12.17;74.59
30216;BME280;17028;47.642;8.070;2022-10-23T06:53:01;93667.56;;;12.26;74.61
30216;BME280;17028;47.642;8.070;2022-10-23T06:58:05;93681.84;;;12.37;74.56
30216;BME280;17028;47.642;8.070;2022-10-23T07:03:11;93674.50;;;12.49;74.49
30216;BME280;17028;47.642;8.070;2022-10-23T07:08:13;93674.00;;;12.60;74.46
30216;BME280;17028;47.642;8.070;2022-10-23T07:13:16;93674.72;;;12.69;74.67
30216;BME280;17028;47.642;8.070;2022-10-23T07:18:45;93697.84;;;12.79;75.29
30216;BME280;17028;47.642;8.070;2022-10-23T07:24:06;93687.88;;;12.88;75.50
30216;BME280;17028;47.642;8.070;2022-10-23T07:29:11;93684.84;;;13.00;75.42
30216;BME280;17028;47.642;8.070;2022-10-23T07:34:12;93680.56;;;13.14;75.41
30216;BME280;17028;47.642;8.070;2022-10-23T07:39:14;93693.38;;;13.30;75.60
30216;BME280;17028;47.642;8.070;2022-10-23T07:44:22;93681.50;;;13.45;75.28
30216;BME280;17028;47.642;8.070;2022-10-23T07:49:23;93672.06;;;13.57;75.40
30216;BME280;17028;47.642;8.070;2022-10-23T07:54:24;93669.31;;;13.72;75.17
30216;BME280;17028;47.642;8.070;2022-10-23T07:59:25;93683.63;;;13.89;75.12
30216;BME280;17028;47.642;8.070;2022-10-23T08:04:28;93679.59;;;14.05;75.22
30216;BME280;17028;47.642;8.070;2022-10-23T08:09:35;93679.63;;;14.20;74.72
30216;BME280;17028;47.642;8.070;2022-10-23T08:14:38;93681.38;;;14.32;73.73
30216;BME280;17028;47.642;8.070;2022-10-23T08:19:39;93679.22;;;14.42;72.82
30216;BME280;17028;47.642;8.070;2022-10-23T08:24:46;93665.09;;;14.51;72.43
30216;BME280;17028;47.642;8.070;2022-10-23T08:29:47;93667.81;;;14.61;71.70
30216;BME280;17028;47.642;8.070;2022-10-23T08:34:48;93668.72;;;14.67;70.14
30216;BME280;17028;47.642;8.070;2022-10-23T08:39:49;93653.59;;;14.79;69.69
30216;BME280;17028;47.642;8.070;2022-10-23T08:45:28;93653.28;;;14.92;69.22
30216;BME280;17028;47.642;8.070;2022-10-23T08:50:42;93644.44;;;14.99;68.27
30216;BME280;17028;47.642;8.070;2022-10-23T08:55:47;93633.63;;;15.13;68.25
30216;BME280;17028;47.642;8.070;2022-10-23T09:00:53;93634.31;;;15.23;67.86
30216;BME280;17028;47.642;8.070;2022-10-23T09:06:13;93632.41;;;15.34;67.67
30216;BME280;17028;47.642;8.070;2022-10-23T09:11:26;93637.94;;;15.49;67.56
30216;BME280;17028;47.642;8.070;2022-10-23T09:21:55;93632.25;;;15.64;70.18
30216;BME280;17028;47.642;8.070;2022-10-23T09:26:56;93624.88;;;15.67;71.38
30216;BME280;17028;47.642;8.070;2022-10-23T09:31:59;93629.72;;;15.66;72.08
30216;BME280;17028;47.642;8.070;2022-10-23T09:37:25;93630.69;;;15.63;72.70
30216;BME280;17028;47.642;8.070;2022-10-23T09:42:27;93616.88;;;15.60;73.32
30216;BME280;17028;47.642;8.070;2022-10-23T09:47:28;93604.78;;;15.74;72.80
30216;BME280;17028;47.642;8.070;2022-10-23T09:52:34;93603.44;;;15.90;72.69
30216;BME280;17028;47.642;8.070;2022-10-23T09:57:39;93596.91;;;16.05;72.56
30216;BME280;17028;47.642;8.070;2022-10-23T10:02:42;93595.06;;;16.22;71.95
30216;BME280;17028;47.642;8.070;2022-10-23T10:23:44;93595.28;;;16.88;70.80
30216;BME280;17028;47.642;8.070;2022-10-23T10:29:09;93606.16;;;17.01;70.67
30216;BME280;17028;47.642;8.070;2022-10-23T10:39:37;93632.94;;;16.91;70.28
30216;BME280;17028;47.642;8.070;2022-10-23T10:50:27;93611.91;;;16.86;71.07
30216;BME280;17028;47.642;8.070;2022-10-23T10:56:09;93605.44;;;17.12;70.82
30216;BME280;17028;47.642;8.070;2022-10-23T11:01:21;93606.59;;;17.37;70.67
30216;BME280;17028;47.642;8.070;2022-10-23T11:06:33;93591.84;;;17.65;69.91
30216;BME280;17028;47.642;8.070;2022-10-23T11:11:37;93596.50;;;17.85;68.57
30216;BME280;17028;47.642;8.070;2022-10-23T11:16:45;93595.25;;;17.92;67.21
30216;BME280;17028;47.642;8.070;2022-10-23T11:27:03;93577.22;;;17.61;67.76
30216;BME280;17028;47.642;8.070;2022-10-23T11:32:39;93576.69;;;17.51;67.65
30216;BME280;17028;47.642;8.070;2022-10-23T11:37:44;93568.41;;;17.36;67.82
30216;BME280;17028;47.642;8.070;2022-10-23T11:42:56;93568.63;;;17.27;67.92
30216;BME280;17028;47.642;8.070;2022-10-23T11:48:03;93560.38;;;17.12;67.56
30216;BME280;17028;47.642;8.070;2022-10-23T11:53:09;93558.56;;;17.09;68.06
30216;BME280;17028;47.642;8.070;2022-10-23T11:58:25;93544.22;;;17.12;68.39
30216;BME280;17028;47.642;8.070;2022-10-23T12:03:41;93548.59;;;17.19;69.05
30216;BME280;17028;47.642;8.070;2022-10-23T12:08:55;93545.31;;;17.21;69.87
30216;BME280;17028;47.642;8.070;2022-10-23T12:13:58;93542.00;;;17.28;69.63
30216;BME280;17028;47.642;8.070;2022-10-23T12:19:16;93562.75;;;17.25;70.51
30216;BME280;17028;47.642;8.070;2022-10-23T12:29:37;93517.88;;;17.15;71.15
30216;BME280;17028;47.642;8.070;2022-10-23T12:40:08;93501.50;;;17.14;70.88
30216;BME280;17028;47.642;8.070;2022-10-23T12:45:16;93503.28;;;17.11;70.98
30216;BME280;17028;47.642;8.070;2022-10-23T12:50:27;93506.84;;;17.12;71.30
30216;BME280;17028;47.642;8.070;2022-10-23T13:00:52;93484.63;;;17.25;71.72
30216;BME280;17028;47.642;8.070;2022-10-23T13:05:54;93466.97;;;17.36;71.51
30216;BME280;17028;47.642;8.070;2022-10-23T13:10:58;93493.09;;;17.36;72.30
30216;BME280;17028;47.642;8.070;2022-10-23T13:16:15;93507.19;;;17.36;73.01
30216;BME280;17028;47.642;8.070;2022-10-23T13:21:25;93484.38;;;17.29;72.87
30216;BME280;17028;47.642;8.070;2022-10-23T13:26:38;93515.06;;;17.15;72.43
30216;BME280;17028;47.642;8.070;2022-10-23T13:31:44;93495.28;;;17.04;73.11
30216;BME280;17028;47.642;8.070;2022-10-23T13:42:12;93487.75;;;16.84;74.27
30216;BME280;17028;47.642;8.070;2022-10-23T13:47:14;93484.63;;;16.76;73.63
30216;BME280;17028;47.642;8.070;2022-10-23T13:52:19;93464.09;;;16.64;73.38
30216;BME280;17028;47.642;8.070;2022-10-23T13:57:23;93466.16;;;16.64;73.28
30216;BME280;17028;47.642;8.070;2022-10-23T14:02:24;93456.75;;;16.73;73.04
30216;BME280;17028;47.642;8.070;2022-10-23T14:07:25;93448.09;;;16.82;73.33
30216;BME280;17028;47.642;8.070;2022-10-23T14:12:26;93435.34;;;16.92;73.30
30216;BME280;17028;47.642;8.070;2022-10-23T14:17:27;93426.41;;;17.05;73.65
30216;BME280;17028;47.642;8.070;2022-10-23T14:22:28;93424.41;;;17.17;73.81
30216;BME280;17028;47.642;8.070;2022-10-23T14:27:29;93418.25;;;17.13;75.73
30216;BME280;17028;47.642;8.070;2022-10-23T14:32:30;93407.75;;;17.19;75.67
30216;BME280;17028;47.642;8.070;2022-10-23T14:37:32;93412.91;;;17.26;75.51
30216;BME280;17028;47.642;8.070;2022-10-23T14:42:33;93413.41;;;17.25;74.94
30216;BME280;17028;47.642;8.070;2022-10-23T14:47:34;93417.78;;;17.31;74.47
30216;BME280;17028;47.642;8.070;2022-10-23T14:52:35;93443.44;;;17.39;74.31
30216;BME280;17028;47.642;8.070;2022-10-23T14:57:36;93467.72;;;17.25;74.97
30216;BME280;17028;47.642;8.070;2022-10-23T15:02:38;93499.88;;;17.01;76.47
30216;BME280;17028;47.642;8.070;2022-10-23T15:07:39;93541.19;;;16.35;75.95
30216;BME280;17028;47.642;8.070;2022-10-23T15:12:40;93476.03;;;16.42;75.17
30216;BME280;17028;47.642;8.070;2022-10-23T15:17:41;93477.28;;;16.41;75.51
30216;BME280;17028;47.642;8.070;2022-10-23T15:22:42;93468.56;;;16.39;75.94
30216;BME280;17028;47.642;8.070;2022-10-23T15:27:43;93437.91;;;16.41;76.34
30216;BME280;17028;47.642;8.070;2022-10-23T15:32:44;93403.66;;;16.48;76.31
30216;BME280;17028;47.642;8.070;2022-10-23T15:37:45;93387.03;;;16.50;76.62
30216;BME280;17028;47.642;8.070;2022-10-23T15:42:48;93392.44;;;16.54;76.87
30216;BME280;17028;47.642;8.070;2022-10-23T15:47:49;93383.72;;;16.52;77.04
30216;BME280;17028;47.642;8.070;2022-10-23T15:52:50;93379.13;;;16.55;76.60
30216;BME280;17028;47.642;8.070;2022-10-23T15:57:53;93369.94;;;16.60;76.01
30216;BME280;17028;47.642;8.070;2022-10-23T16:02:54;93372.25;;;16.67;75.69
30216;BME280;17028;47.642;8.070;2022-10-23T16:07:55;93374.34;;;16.78;75.16
30216;BME280;17028;47.642;8.070;2022-10-23T16:12:56;93389.19;;;16.73;75.24
30216;BME280;17028;47.642;8.070;2022-10-23T16:17:57;93379.19;;;16.66;75.52
30216;BME280;17028;47.642;8.070;2022-10-23T16:22:58;93376.03;;;16.52;76.92
30216;BME280;17028;47.642;8.070;2022-10-23T16:27:59;93388.50;;;16.34;78.31
30216;BME280;17028;47.642;8.070;2022-10-23T16:33:00;93405.34;;;16.29;78.79
30216;BME280;17028;47.642;8.070;2022-10-23T16:38:02;93419.66;;;16.25;77.73
30216;BME280;17028;47.642;8.070;2022-10-23T16:43:03;93417.78;;;16.16;76.61
30216;BME280;17028;47.642;8.070;2022-10-23T16:48:15;93436.22;;;16.17;75.97
30216;BME280;17028;47.642;8.070;2022-10-23T16:53:16;93444.94;;;16.19;74.97
30216;BME280;17028;47.642;8.070;2022-10-23T16:58:17;93457.47;;;16.24;74.58
30216;BME280;17028;47.642;8.070;2022-10-23T17:03:18;93465.19;;;16.29;73.80
30216;BME280;17028;47.642;8.070;2022-10-23T17:08:19;93471.31;;;16.28;73.75
30216;BME280;17028;47.642;8.070;2022-10-23T17:13:20;93478.72;;;16.25;73.69
30216;BME280;17028;47.642;8.070;2022-10-23T17:18:21;93505.50;;;16.20;73.83
30216;BME280;17028;47.642;8.070;2022-10-23T17:23:22;93504.19;;;16.10;74.14
30216;BME280;17028;47.642;8.070;2022-10-23T17:28:23;93516.03;;;15.94;74.93
30216;BME280;17028;47.642;8.070;2022-10-23T17:33:24;93524.94;;;15.86;75.10
30216;BME280;17028;47.642;8.070;2022-10-23T17:38:25;93503.09;;;15.76;75.75
30216;BME280;17028;47.642;8.070;2022-10-23T17:43:26;93541.59;;;15.69;76.14
30216;BME280;17028;47.642;8.070;2022-10-23T17:48:27;93519.84;;;15.64;76.35
30216;BME280;17028;47.642;8.070;2022-10-23T17:53:29;93532.59;;;15.60;76.92
30216;BME280;17028;47.642;8.070;2022-10-23T17:58:31;93530.81;;;15.62;77.05
30216;BME280;17028;47.642;8.070;2022-10-23T18:03:33;93550.19;;;15.60;77.17
30216;BME280;17028;47.642;8.070;2022-10-23T18:08:35;93553.50;;;15.59;77.42
30216;BME280;17028;47.642;8.070;2022-10-23T18:13:36;93577.03;;;15.61;77.14
30216;BME280;17028;47.642;8.070;2022-10-23T18:18:39;93570.16;;;15.62;77.41
30216;BME280;17028;47.642;8.070;2022-10-23T18:23:40;93588.53;;;15.63;77.77
30216;BME280;17028;47.642;8.070;2022-10-23T18:28:42;93586.28;;;15.67;77.70
30216;BME280;17028;47.642;8.070;2022-10-23T18:33:44;93605.19;;;15.67;77.45
30216;BME280;17028;47.642;8.070;2022-10-23T18:38:45;93603.94;;;15.68;77.35
30216;BME280;17028;47.642;8.070;2022-10-23T18:43:47;93594.81;;;15.73;77.27
30216;BME280;17028;47.642;8.070;2022-10-23T18:48:48;93596.06;;;15.72;76.68
30216;BME280;17028;47.642;8.070;2022-10-23T18:53:50;93594.38;;;15.80;75.83
30216;BME280;17028;47.642;8.070;2022-10-23T18:58:56;93603.44;;;15.90;75.03
30216;BME280;17028;47.642;8.070;2022-10-23T19:03:59;93621.41;;;15.98;73.88
30216;BME280;17028;47.642;8.070;2022-10-23T19:09:00;93600.69;;;15.96;71.29
30216;BME280;17028;47.642;8.070;2022-10-23T19:14:01;93596.38;;;16.00;68.38
30216;BME280;17028;47.642;8.070;2022-10-23T19:19:16;93612.16;;;16.18;68.80
30216;BME280;17028;47.642;8.070;2022-10-23T19:24:25;93623.41;;;16.18;67.44
30216;BME280;17028;47.642;8.070;2022-10-23T19:29:29;93603.16;;;16.14;66.77
30216;BME280;17028;47.642;8.070;2022-10-23T19:34:31;93601.47;;;16.28;64.49
30216;BME280;17028;47.642;8.070;2022-10-23T19:39:32;93579.00;;;16.34;63.34
30216;BME280;17028;47.642;8.070;2022-10-23T19:44:33;93580.38;;;16.44;62.33
30216;BME280;17028;47.642;8.070;2022-10-23T19:49:34;93559.53;;;16.25;61.04
30216;BME280;17028;47.642;8.070;2022-10-23T19:54:35;93579.00;;;16.34;62.37
30216;BME280;17028;47.642;8.070;2022-10-23T19:59:37;93587.34;;;16.49;62.17
30216;BME280;17028;47.642;8.070;2022-10-23T20:04:38;93601.44;;;16.55;61.06
30216;BME280;17028;47.642;8.070;2022-10-23T20:09:39;93628.88;;;16.60;59.69
30216;BME280;17028;47.642;8.070;2022-10-23T20:14:40;93631.41;;;16.58;59.49
30216;BME280;17028;47.642;8.070;2022-10-23T20:19:41;93651.47;;;16.71;59.04
30216;BME280;17028;47.642;8.070;2022-10-23T20:24:44;93647.81;;;16.91;59.17
30216;BME280;17028;47.642;8.070;2022-10-23T20:29:45;93648.75;;;16.82;59.48
30216;BME280;17028;47.642;8.070;2022-10-23T20:34:46;93642.56;;;16.78;59.58
30216;BME280;17028;47.642;8.070;2022-10-23T20:39:47;93621.97;;;16.61;60.35
30216;BME280;17028;47.642;8.070;2022-10-23T20:44:48;93624.84;;;16.40;61.51
30216;BME280;17028;47.642;8.070;2022-10-23T20:49:49;93648.81;;;16.62;61.75
30216;BME280;17028;47.642;8.070;2022-10-23T20:54:50;93634.75;;;16.62;62.05
30216;BME280;17028;47.642;8.070;2022-10-23T20:59:51;93628.38;;;16.61;62.38
30216;BME280;17028;47.642;8.070;2022-10-23T21:04:52;93651.72;;;16.67;62.39
30216;BME280;17028;47.642;8.070;2022-10-23T21:09:53;93631.69;;;16.60;62.48
30216;BME280;17028;47.642;8.070;2022-10-23T21:14:55;93614.06;;;16.65;62.75
30216;BME280;17028;47.642;8.070;2022-10-23T21:19:56;93604.91;;;16.70;62.69
30216;BME280;17028;47.642;8.070;2022-10-23T21:24:57;93602.53;;;16.63;63.35
30216;BME280;17028;47.642;8.070;2022-10-23T21:29:59;93603.03;;;16.61;63.47
30216;BME280;17028;47.642;8.070;2022-10-23T21:35:00;93596.66;;;16.66;63.70
30216;BME280;17028;47.642;8.070;2022-10-23T21:40:02;93594.69;;;16.73;63.54
30216;BME280;17028;47.642;8.070;2022-10-23T21:45:03;93603.38;;;16.75;63.17
30216;BME280;17028;47.642;8.070;2022-10-23T21:50:05;93621.06;;;16.75;61.73
30216;BME280;17028;47.642;8.070;2022-10-23T21:55:06;93643.09;;;16.82;61.92
30216;BME280;17028;47.642;8.070;2022-10-23T22:00:08;93618.81;;;16.85;61.54
30216;BME280;17028;47.642;8.070;2022-10-23T22:05:13;93611.38;;;16.82;64.28
30216;BME280;17028;47.642;8.070;2022-10-23T22:10:14;93617.50;;;16.80;64.44
30216;BME280;17028;47.642;8.070;2022-10-23T22:15:15;93604.69;;;16.79;65.13
30216;BME280;17028;47.642;8.070;2022-10-23T22:20:16;93625.22;;;16.85;65.34
30216;BME280;17028;47.642;8.070;2022-10-23T22:25:17;93621.97;;;16.93;65.10
30216;BME280;17028;47.642;8.070;2022-10-23T22:30:18;93631.22;;;16.99;65.00
30216;BME280;17028;47.642;8.070;2022-10-23T22:35:19;93620.00;;;17.05;65.09
30216;BME280;17028;47.642;8.070;2022-10-23T22:40:20;93614.63;;;17.07;65.33
30216;BME280;17028;47.642;8.070;2022-10-23T22:45:21;93608.19;;;17.00;65.29
30216;BME280;17028;47.642;8.070;2022-10-23T22:50:22;93596.34;;;16.91;64.87
30216;BME280;17028;47.642;8.070;2022-10-23T22:55:23;93584.22;;;16.84;64.80
30216;BME280;17028;47.642;8.070;2022-10-23T23:00:24;93563.53;;;16.88;64.88
30216;BME280;17028;47.642;8.070;2022-10-23T23:05:25;93576.41;;;16.94;64.66
30216;BME280;17028;47.642;8.070;2022-10-23T23:10:26;93558.25;;;16.95;64.72
30216;BME280;17028;47.642;8.070;2022-10-23T23:15:28;93566.19;;;16.97;65.05
30216;BME280;17028;47.642;8.070;2022-10-23T23:20:29;93559.50;;;16.94;64.95
30216;BME280;17028;47.642;8.070;2022-10-23T23:25:30;93558.97;;;16.90;64.99
30216;BME280;17028;47.642;8.070;2022-10-23T23:30:31;93557.91;;;16.88;65.33
30216;BME280;17028;47.642;8.070;2022-10-23T23:35:32;93552.28;;;16.88;65.34
30216;BME280;17028;47.642;8.070;2022-10-23T23:40:33;93566.59;;;16.84;65.37
30216;BME280;17028;47.642;8.070;2022-10-23T23:45:34;93566.34;;;16.82;65.84
30216;BME280;17028;47.642;8.070;2022-10-23T23:50:35;93565.81;;;16.83;66.19
30216;BME280;17028;47.642;8.070;2022-10-23T23:55:36;93570.66;;;16.83;66.43
